createdAt,value
2023-05-23T00:01:09.217Z,14.40
2023-05-23T00:03:36.597Z,14.30
2023-05-23T00:06:05.777Z,14.20
2023-05-23T00:08:32.630Z,14.10
2023-05-23T00:10:59.665Z,13.90
2023-05-23T00:13:27.036Z,13.90
2023-05-23T00:15:53.866Z,13.80
2023-05-23T00:18:24.847Z,13.80
2023-05-23T00:20:52.267Z,13.80
2023-05-23T00:23:20.874Z,13.80
2023-05-23T00:25:54.078Z,13.80
2023-05-23T00:28:21.736Z,13.80
2023-05-23T00:30:51.742Z,13.70
2023-05-23T00:33:22.206Z,13.70
2023-05-23T00:35:49.508Z,13.70
2023-05-23T00:38:17.001Z,13.70
2023-05-23T00:40:43.936Z,13.60
2023-05-23T00:43:12.505Z,13.60
2023-05-23T00:45:40.320Z,13.50
2023-05-23T00:48:09.117Z,13.40
2023-05-23T00:50:36.407Z,13.40
2023-05-23T00:53:04.554Z,13.40
2023-05-23T00:55:32.667Z,13.40
2023-05-23T00:57:59.546Z,13.50
2023-05-23T01:00:28.331Z,13.50
2023-05-23T01:02:55.507Z,13.40
2023-05-23T01:05:25.024Z,13.40
2023-05-23T01:07:52.372Z,13.30
2023-05-23T01:10:25.656Z,13.20
2023-05-23T01:13:30.125Z,13.20
2023-05-23T01:16:19.241Z,13.20
2023-05-23T01:18:54.712Z,13.20
2023-05-23T01:21:22.078Z,13.20
2023-05-23T01:24:07.120Z,13.20
2023-05-23T01:26:56.410Z,13.20
2023-05-23T01:29:34.325Z,13.20
2023-05-23T01:32:02.613Z,13.20
2023-05-23T01:34:30.552Z,13.20
2023-05-23T01:36:58.133Z,13.20
2023-05-23T01:39:25.103Z,13.20
2023-05-23T01:41:52.026Z,13.20
2023-05-23T01:44:21.236Z,13.30
2023-05-23T01:46:50.007Z,13.30
2023-05-23T01:49:17.504Z,13.30
2023-05-23T01:51:44.592Z,13.30
2023-05-23T01:54:13.226Z,13.30
2023-05-23T01:56:40.717Z,13.30
2023-05-23T01:59:09.005Z,13.30
2023-05-23T02:01:37.833Z,13.30
2023-05-23T02:04:06.816Z,13.20
2023-05-23T02:06:35.135Z,13.20
2023-05-23T02:09:02.871Z,13.30
2023-05-23T02:11:29.899Z,13.20
2023-05-23T02:13:57.201Z,13.10
2023-05-23T02:16:27.240Z,13.00
2023-05-23T02:18:56.499Z,13.00
2023-05-23T02:21:24.876Z,12.90
2023-05-23T02:23:54.129Z,12.90
2023-05-23T02:26:21.637Z,12.80
2023-05-23T02:28:50.038Z,12.80
2023-05-23T02:31:18.428Z,12.80
2023-05-23T02:33:45.398Z,12.80
2023-05-23T02:36:14.038Z,12.80
2023-05-23T02:38:40.996Z,12.70
2023-05-23T02:41:07.918Z,12.70
2023-05-23T02:43:35.074Z,12.70
2023-05-23T02:46:01.973Z,12.70
2023-05-23T02:48:29.091Z,12.70
2023-05-23T02:50:56.370Z,12.60
2023-05-23T02:53:23.331Z,12.60
2023-05-23T02:55:51.221Z,12.60
2023-05-23T02:58:19.133Z,12.60
2023-05-23T03:00:47.311Z,12.60
2023-05-23T03:03:17.733Z,12.50
2023-05-23T03:05:44.758Z,12.50
2023-05-23T03:08:15.701Z,12.50
2023-05-23T03:10:42.869Z,12.40
2023-05-23T03:13:09.966Z,12.50
2023-05-23T03:15:37.694Z,12.50
2023-05-23T03:18:04.617Z,12.50
2023-05-23T03:20:34.503Z,12.60
2023-05-23T03:23:02.960Z,12.60
2023-05-23T03:25:29.860Z,12.50
2023-05-23T03:27:56.763Z,12.60
2023-05-23T03:30:23.958Z,12.60
2023-05-23T03:32:50.907Z,12.60
2023-05-23T03:35:19.239Z,12.70
2023-05-23T03:37:46.429Z,12.70
2023-05-23T03:40:13.299Z,12.70
2023-05-23T03:42:40.539Z,12.70
2023-05-23T03:45:07.678Z,12.80
2023-05-23T03:47:34.599Z,12.80
2023-05-23T03:50:01.455Z,12.80
2023-05-23T03:52:28.328Z,12.80
2023-05-23T03:54:55.509Z,12.80
2023-05-23T03:57:22.883Z,12.80
2023-05-23T03:59:49.820Z,12.70
2023-05-23T04:02:17.672Z,12.70
2023-05-23T04:04:44.568Z,12.70
2023-05-23T04:07:11.764Z,12.70
2023-05-23T04:09:38.951Z,12.70
2023-05-23T04:12:06.206Z,12.80
2023-05-23T04:14:34.039Z,12.90
2023-05-23T04:17:01.666Z,13.00
2023-05-23T04:19:28.522Z,13.10
2023-05-23T04:21:55.674Z,13.20
2023-05-23T04:24:22.832Z,13.20
2023-05-23T04:26:50.137Z,13.30
2023-05-23T04:29:17.385Z,13.50
2023-05-23T04:31:46.103Z,13.50
2023-05-23T04:34:13.560Z,13.60
2023-05-23T04:36:40.482Z,13.70
2023-05-23T04:39:07.458Z,13.80
2023-05-23T04:41:34.625Z,14.00
2023-05-23T04:44:03.117Z,14.20
2023-05-23T04:46:30.203Z,14.40
2023-05-23T04:48:59.416Z,14.60
2023-05-23T04:51:27.447Z,14.70
2023-05-23T04:53:54.299Z,14.90
2023-05-23T04:56:22.344Z,15.00
2023-05-23T04:58:49.446Z,15.30
2023-05-23T05:01:16.404Z,15.50
2023-05-23T05:03:43.390Z,15.60
2023-05-23T05:06:10.725Z,15.70
2023-05-23T05:08:38.017Z,15.70
2023-05-23T05:11:05.278Z,15.90
2023-05-23T05:13:32.409Z,16.10
2023-05-23T05:15:59.323Z,16.30
2023-05-23T05:18:27.181Z,16.70
2023-05-23T05:20:54.259Z,17.00
2023-05-23T05:23:31.861Z,17.30
2023-05-23T05:26:00.775Z,17.60
2023-05-23T05:28:29.433Z,17.90
2023-05-23T05:30:57.037Z,18.10
2023-05-23T05:33:25.893Z,18.30
2023-05-23T05:35:53.088Z,18.50
2023-05-23T05:38:20.004Z,18.60
2023-05-23T05:40:48.239Z,18.80
2023-05-23T05:43:15.454Z,18.90
2023-05-23T05:45:43.706Z,18.90
2023-05-23T05:48:11.908Z,18.90
2023-05-23T05:50:40.034Z,19.00
2023-05-23T05:53:09.804Z,19.10
2023-05-23T05:55:38.106Z,19.10
2023-05-23T05:58:06.105Z,18.90
2023-05-23T06:00:34.933Z,18.80
2023-05-23T06:03:10.337Z,18.80
2023-05-23T06:05:37.671Z,18.70
2023-05-23T06:08:06.078Z,18.60
2023-05-23T06:10:32.959Z,18.50
2023-05-23T06:13:01.376Z,18.20
2023-05-23T06:15:28.245Z,18.30
2023-05-23T06:17:55.310Z,18.40
2023-05-23T06:20:22.553Z,18.40
2023-05-23T06:22:49.823Z,18.30
2023-05-23T06:25:17.040Z,18.30
2023-05-23T06:27:44.994Z,18.20
2023-05-23T06:30:12.670Z,18.20
2023-05-23T06:32:43.172Z,18.30
2023-05-23T06:35:10.717Z,18.30
2023-05-23T06:37:37.860Z,18.30
2023-05-23T06:40:05.674Z,18.30
2023-05-23T06:42:32.828Z,18.40
2023-05-23T06:44:59.772Z,18.40
2023-05-23T06:47:32.210Z,18.40
2023-05-23T06:50:03.167Z,18.60
2023-05-23T06:52:31.076Z,18.60
2023-05-23T06:54:59.236Z,18.70
2023-05-23T06:57:26.100Z,18.70
2023-05-23T06:59:53.300Z,18.70
2023-05-23T07:02:20.239Z,18.70
2023-05-23T07:04:47.152Z,18.70
2023-05-23T07:07:14.342Z,18.80
2023-05-23T07:09:42.693Z,18.90
2023-05-23T07:12:09.566Z,19.00
2023-05-23T07:14:38.337Z,19.00
2023-05-23T07:17:05.870Z,19.10
2023-05-23T07:19:32.858Z,19.20
2023-05-23T07:21:59.985Z,19.30
2023-05-23T07:24:27.466Z,19.50
2023-05-23T07:26:55.832Z,19.60
2023-05-23T07:29:26.502Z,19.60
2023-05-23T07:31:55.550Z,19.70
2023-05-23T07:34:22.473Z,19.80
2023-05-23T07:36:50.389Z,19.80
2023-05-23T07:39:22.130Z,19.80
2023-05-23T07:41:50.622Z,19.80
2023-05-23T07:44:18.944Z,19.80
2023-05-23T07:46:46.532Z,19.70
2023-05-23T07:49:16.743Z,19.70
2023-05-23T07:51:43.733Z,19.80
2023-05-23T07:54:15.673Z,19.90
2023-05-23T07:56:45.226Z,19.90
2023-05-23T07:59:16.829Z,19.90
2023-05-23T08:01:45.068Z,19.90
2023-05-23T08:04:12.617Z,19.90
2023-05-23T08:06:45.722Z,19.90
2023-05-23T08:09:18.927Z,19.90
2023-05-23T08:11:45.806Z,19.90
2023-05-23T08:14:13.016Z,19.90
2023-05-23T08:16:40.327Z,20.10
2023-05-23T08:19:09.024Z,20.10
2023-05-23T08:21:39.787Z,20.20
2023-05-23T08:24:06.949Z,20.30
2023-05-23T08:26:37.712Z,20.30
2023-05-23T08:29:06.080Z,20.30
2023-05-23T08:31:35.098Z,20.30
2023-05-23T08:34:03.608Z,20.40
2023-05-23T08:36:34.937Z,20.40
2023-05-23T08:39:02.115Z,20.50
2023-05-23T08:41:30.662Z,20.70
2023-05-23T08:43:58.003Z,20.80
2023-05-23T08:46:27.109Z,21.00
2023-05-23T08:48:55.048Z,21.20
2023-05-23T08:51:28.800Z,21.50
2023-05-23T08:53:59.463Z,21.60
2023-05-23T08:56:26.386Z,21.70
2023-05-23T08:58:54.434Z,21.70
2023-05-23T09:01:21.564Z,21.70
2023-05-23T09:03:51.068Z,21.70
2023-05-23T09:06:20.857Z,21.70
2023-05-23T09:08:47.982Z,21.70
2023-05-23T09:11:14.862Z,21.70
2023-05-23T09:13:42.141Z,21.70
2023-05-23T09:16:14.228Z,21.70
2023-05-23T09:18:42.454Z,21.60
2023-05-23T09:21:13.869Z,21.70
2023-05-23T09:23:41.677Z,21.70
2023-05-23T09:26:11.737Z,21.70
2023-05-23T09:28:39.367Z,21.60
2023-05-23T09:31:08.831Z,21.60
2023-05-23T09:33:50.526Z,21.60
2023-05-23T09:36:18.130Z,21.60
2023-05-23T09:38:46.508Z,21.60
2023-05-23T09:41:17.029Z,21.50
2023-05-23T09:43:53.624Z,21.60
2023-05-23T09:46:21.318Z,21.60
2023-05-23T09:48:53.926Z,21.60
2023-05-23T09:51:23.862Z,21.60
2023-05-23T09:53:52.985Z,21.70
2023-05-23T09:56:20.104Z,22.00
2023-05-23T09:58:51.856Z,22.10
2023-05-23T10:01:18.805Z,22.20
2023-05-23T10:03:51.995Z,22.30
2023-05-23T10:06:28.955Z,22.30
2023-05-23T10:08:58.111Z,22.20
2023-05-23T10:11:37.910Z,22.20
2023-05-23T10:14:07.133Z,22.30
2023-05-23T10:16:38.205Z,22.40
2023-05-23T10:19:22.710Z,22.50
2023-05-23T10:22:01.175Z,22.50
2023-05-23T10:24:31.210Z,22.60
2023-05-23T10:26:58.555Z,22.70
2023-05-23T10:29:25.764Z,22.70
2023-05-23T10:31:52.982Z,22.60
2023-05-23T10:34:28.764Z,22.50
2023-05-23T10:37:06.901Z,22.30
2023-05-23T10:39:54.329Z,22.20
2023-05-23T10:42:41.816Z,22.10
2023-05-23T10:45:25.051Z,22.00
2023-05-23T10:47:52.820Z,22.00
2023-05-23T10:50:35.987Z,22.00
2023-05-23T10:53:05.066Z,22.00
2023-05-23T10:55:35.590Z,21.90
2023-05-23T10:58:20.506Z,21.90
2023-05-23T11:00:57.092Z,21.80
2023-05-23T11:03:46.351Z,21.80
2023-05-23T11:06:34.352Z,21.70
2023-05-23T11:09:13.020Z,21.70
2023-05-23T11:11:55.501Z,21.70
2023-05-23T11:14:39.678Z,21.70
2023-05-23T11:17:15.961Z,21.70
2023-05-23T11:20:06.135Z,21.70
2023-05-23T11:22:34.410Z,21.60
2023-05-23T11:25:02.748Z,21.60
2023-05-23T11:27:40.389Z,21.50
2023-05-23T11:30:14.865Z,21.50
2023-05-23T11:32:42.515Z,21.40
2023-05-23T11:35:11.303Z,21.40
2023-05-23T11:37:41.922Z,21.40
2023-05-23T11:40:30.551Z,21.40
2023-05-23T11:42:59.665Z,21.40
2023-05-23T11:45:28.175Z,21.30
2023-05-23T11:47:55.331Z,21.30
2023-05-23T11:50:28.234Z,21.20
2023-05-23T11:52:55.566Z,21.20
2023-05-23T11:55:23.359Z,21.20
2023-05-23T11:57:50.586Z,21.10
2023-05-23T12:00:19.667Z,21.10
2023-05-23T12:02:50.564Z,21.00
2023-05-23T12:05:18.085Z,20.90
2023-05-23T12:07:48.369Z,20.80
2023-05-23T12:10:16.871Z,20.80
2023-05-23T12:12:45.043Z,20.70
2023-05-23T12:15:14.872Z,20.70
2023-05-23T12:17:50.790Z,20.70
2023-05-23T12:20:17.694Z,20.70
2023-05-23T12:22:44.632Z,20.60
2023-05-23T12:25:11.772Z,20.60
2023-05-23T12:27:40.778Z,20.60
2023-05-23T12:30:17.299Z,20.60
2023-05-23T12:32:45.590Z,20.60
2023-05-23T12:35:14.860Z,20.60
2023-05-23T12:37:49.644Z,20.60
2023-05-23T12:40:17.860Z,20.60
2023-05-23T12:42:54.057Z,20.60
2023-05-23T12:45:32.595Z,20.70
2023-05-23T12:47:59.754Z,20.70
2023-05-23T12:50:28.146Z,20.80
2023-05-23T12:52:55.097Z,20.90
2023-05-23T12:55:25.860Z,21.00
2023-05-23T12:57:54.814Z,21.10
2023-05-23T13:00:22.573Z,21.00
2023-05-23T13:02:51.343Z,20.90
2023-05-23T13:05:21.438Z,21.00
2023-05-23T13:07:48.452Z,21.00
2023-05-23T13:10:15.499Z,21.10
2023-05-23T13:12:46.064Z,21.30
2023-05-23T13:15:13.180Z,21.30
2023-05-23T13:17:41.778Z,21.40
2023-05-23T13:20:10.949Z,21.60
2023-05-23T13:22:37.898Z,21.70
2023-05-23T13:25:07.533Z,21.70
2023-05-23T13:27:35.433Z,21.80
2023-05-23T13:30:07.444Z,21.80
2023-05-23T13:32:34.817Z,21.90
2023-05-23T13:35:03.550Z,21.90
2023-05-23T13:37:30.380Z,21.90
2023-05-23T13:39:58.701Z,21.90
2023-05-23T13:42:25.609Z,21.90
2023-05-23T13:44:52.460Z,22.00
2023-05-23T13:47:24.063Z,22.00
2023-05-23T13:49:51.528Z,22.10
2023-05-23T13:52:21.195Z,22.20
2023-05-23T13:54:48.193Z,22.20
2023-05-23T13:57:15.237Z,22.30
2023-05-23T13:59:42.093Z,22.40
2023-05-23T14:02:10.272Z,22.50
2023-05-23T14:04:37.586Z,22.60
2023-05-23T14:07:05.569Z,22.60
2023-05-23T14:09:32.488Z,22.70
2023-05-23T14:12:00.437Z,22.80
2023-05-23T14:14:27.363Z,22.80
2023-05-23T14:16:57.703Z,22.90
2023-05-23T14:19:24.572Z,22.90
2023-05-23T14:21:51.952Z,23.00
2023-05-23T14:24:19.788Z,23.10
2023-05-23T14:26:47.119Z,23.20
2023-05-23T14:29:14.012Z,23.20
2023-05-23T14:31:43.797Z,23.30
2023-05-23T14:34:11.484Z,23.40
2023-05-23T14:36:38.425Z,23.40
2023-05-23T14:39:08.438Z,23.50
2023-05-23T14:41:37.580Z,23.60
2023-05-23T14:44:06.336Z,23.60
2023-05-23T14:46:35.086Z,23.70
2023-05-23T14:49:02.002Z,23.60
2023-05-23T14:51:46.206Z,23.60
2023-05-23T14:54:18.303Z,23.50
2023-05-23T14:56:45.296Z,23.50
2023-05-23T14:59:12.350Z,23.60
2023-05-23T15:01:40.616Z,23.70
2023-05-23T15:04:09.687Z,23.70
2023-05-23T15:06:38.390Z,23.80
2023-05-23T15:09:06.850Z,23.80
2023-05-23T15:11:35.162Z,23.90
2023-05-23T15:14:02.462Z,23.90
2023-05-23T15:16:33.447Z,24.00
2023-05-23T15:19:00.799Z,24.00
2023-05-23T15:21:29.648Z,24.00
2023-05-23T15:23:57.873Z,24.10
2023-05-23T15:26:25.578Z,24.10
2023-05-23T15:28:52.804Z,24.10
2023-05-23T15:31:20.984Z,24.00
2023-05-23T15:33:48.256Z,24.00
2023-05-23T15:36:18.083Z,24.00
2023-05-23T15:38:45.349Z,24.00
2023-05-23T15:41:12.527Z,24.00
2023-05-23T15:43:40.346Z,24.00
2023-05-23T15:46:07.330Z,24.10
2023-05-23T15:48:34.396Z,24.10
2023-05-23T15:51:03.936Z,24.10
2023-05-23T15:53:37.206Z,24.10
2023-05-23T15:56:11.260Z,24.10
2023-05-23T15:58:38.216Z,24.00
2023-05-23T16:01:06.562Z,23.90
2023-05-23T16:03:36.046Z,23.80
2023-05-23T16:06:03.321Z,23.70
2023-05-23T16:08:30.137Z,23.50
2023-05-23T16:10:58.326Z,23.40
2023-05-23T16:13:25.263Z,23.30
2023-05-23T16:15:54.028Z,23.40
2023-05-23T16:18:23.409Z,23.40
2023-05-23T16:20:51.902Z,23.40
2023-05-23T16:23:18.827Z,23.40
2023-05-23T16:25:46.278Z,23.40
2023-05-23T16:28:13.536Z,23.30
2023-05-23T16:30:43.442Z,23.30
2023-05-23T16:33:10.550Z,23.20
2023-05-23T16:35:37.763Z,23.10
2023-05-23T16:38:04.633Z,23.00
2023-05-23T16:40:31.583Z,23.00
2023-05-23T16:43:00.012Z,23.00
2023-05-23T16:45:27.462Z,23.00
2023-05-23T16:47:55.152Z,23.00
2023-05-23T16:50:22.975Z,23.00
2023-05-23T16:52:50.052Z,22.90
2023-05-23T16:55:18.295Z,23.00
2023-05-23T16:57:45.191Z,23.10
2023-05-23T17:00:12.995Z,23.10
2023-05-23T17:02:41.515Z,23.00
2023-05-23T17:05:09.092Z,22.90
2023-05-23T17:07:36.186Z,22.70
2023-05-23T17:10:04.334Z,22.60
2023-05-23T17:12:31.855Z,22.50
2023-05-23T17:14:58.727Z,22.60
2023-05-23T17:17:26.690Z,22.60
2023-05-23T17:19:58.010Z,22.60
2023-05-23T17:22:25.176Z,22.60
2023-05-23T17:24:53.048Z,22.40
2023-05-23T17:27:19.937Z,22.30
2023-05-23T17:29:49.995Z,22.20
2023-05-23T17:32:17.012Z,22.30
2023-05-23T17:34:46.050Z,22.30
2023-05-23T17:37:12.991Z,22.20
2023-05-23T17:39:40.275Z,22.00
2023-05-23T17:42:07.695Z,21.90
2023-05-23T17:44:36.465Z,21.90
2023-05-23T17:47:03.408Z,21.80
2023-05-23T17:49:35.034Z,21.70
2023-05-23T17:52:05.730Z,21.70
2023-05-23T17:54:32.670Z,21.60
2023-05-23T17:57:00.519Z,21.60
2023-05-23T17:59:28.022Z,21.50
2023-05-23T18:01:56.142Z,21.40
2023-05-23T18:04:26.085Z,21.30
2023-05-23T18:06:53.063Z,21.10
2023-05-23T18:09:20.518Z,21.10
2023-05-23T18:11:49.502Z,20.90
2023-05-23T18:14:16.419Z,21.00
2023-05-23T18:16:43.904Z,21.10
2023-05-23T18:19:10.960Z,21.00
2023-05-23T18:21:38.019Z,21.00
2023-05-23T18:24:06.700Z,21.10
2023-05-23T18:26:33.854Z,21.10
2023-05-23T18:29:02.087Z,21.00
2023-05-23T18:31:28.971Z,20.90
2023-05-23T18:33:56.100Z,20.80
2023-05-23T18:36:23.941Z,20.80
2023-05-23T18:38:52.737Z,20.70
2023-05-23T18:41:22.816Z,20.70
2023-05-23T18:43:51.084Z,20.60
2023-05-23T18:46:18.039Z,20.70
2023-05-23T18:48:45.434Z,20.70
2023-05-23T18:51:13.400Z,20.80
2023-05-23T18:53:42.427Z,20.80
2023-05-23T18:56:13.211Z,20.70
2023-05-23T18:58:41.183Z,20.70
2023-05-23T19:01:08.612Z,20.70
2023-05-23T19:03:37.276Z,20.70
2023-05-23T19:06:07.121Z,20.50
2023-05-23T19:08:34.125Z,20.30
2023-05-23T19:11:02.828Z,20.10
2023-05-23T19:13:29.760Z,19.90
2023-05-23T19:15:57.142Z,19.90
2023-05-23T19:18:27.506Z,19.90
2023-05-23T19:20:56.562Z,19.90
2023-05-23T19:23:23.438Z,19.70
2023-05-23T19:25:50.458Z,19.50
2023-05-23T19:28:17.409Z,19.30
2023-05-23T19:30:46.072Z,19.20
2023-05-23T19:33:13.108Z,19.20
2023-05-23T19:35:40.274Z,19.10
2023-05-23T19:38:09.753Z,19.10
2023-05-23T19:40:39.220Z,19.10
2023-05-23T19:43:06.496Z,19.10
2023-05-23T19:45:33.755Z,19.00
2023-05-23T19:48:02.715Z,19.00
2023-05-23T19:50:29.982Z,19.00
2023-05-23T19:52:59.129Z,19.00
2023-05-23T19:55:26.591Z,19.00
2023-05-23T19:57:55.577Z,19.00
2023-05-23T20:00:25.716Z,18.90
2023-05-23T20:02:54.143Z,18.90
2023-05-23T20:05:22.975Z,18.90
2023-05-23T20:07:50.150Z,18.90
2023-05-23T20:10:17.116Z,18.90
2023-05-23T20:12:44.418Z,18.90
2023-05-23T20:15:12.344Z,18.90
2023-05-23T20:17:39.284Z,18.90
2023-05-23T20:20:07.199Z,18.90
2023-05-23T20:22:34.054Z,18.90
2023-05-23T20:25:01.598Z,18.90
2023-05-23T20:27:29.826Z,18.80
2023-05-23T20:29:56.694Z,18.80
2023-05-23T20:32:25.483Z,18.80
2023-05-23T20:34:52.812Z,18.80
2023-05-23T20:37:20.594Z,18.80
2023-05-23T20:39:48.561Z,18.70
2023-05-23T20:42:16.977Z,18.70
2023-05-23T20:44:44.825Z,18.70
2023-05-23T20:47:13.529Z,18.70
2023-05-23T20:49:42.951Z,18.70
2023-05-23T20:52:10.315Z,18.70
2023-05-23T20:54:37.330Z,18.60
2023-05-23T20:57:05.334Z,18.70
2023-05-23T20:59:32.273Z,18.70
2023-05-23T21:01:59.299Z,18.60
2023-05-23T21:04:29.227Z,18.60
2023-05-23T21:06:56.826Z,18.60
2023-05-23T21:09:23.904Z,18.60
2023-05-23T21:11:50.917Z,18.50
2023-05-23T21:14:19.006Z,18.50
2023-05-23T21:16:46.630Z,18.50
2023-05-23T21:19:13.616Z,18.40
2023-05-23T21:21:40.578Z,18.40
2023-05-23T21:24:07.732Z,18.40
2023-05-23T21:26:34.965Z,18.40
2023-05-23T21:29:01.805Z,18.40
2023-05-23T21:31:40.310Z,18.30
2023-05-23T21:34:22.459Z,18.30
2023-05-23T21:36:52.476Z,18.20
2023-05-23T21:39:20.944Z,18.20
2023-05-23T21:41:48.859Z,18.20
2023-05-23T21:44:18.862Z,18.10
2023-05-23T21:46:45.919Z,18.10
2023-05-23T21:49:13.419Z,18.10
2023-05-23T21:51:41.060Z,18.10
2023-05-23T21:54:09.430Z,18.10
2023-05-23T21:56:37.167Z,18.00
2023-05-23T21:59:04.367Z,18.00
2023-05-23T22:01:32.386Z,18.00
2023-05-23T22:03:59.513Z,18.00
2023-05-23T22:06:26.769Z,17.90
2023-05-23T22:08:54.312Z,18.00
2023-05-23T22:11:22.522Z,17.90
2023-05-23T22:13:51.068Z,17.80
2023-05-23T22:16:18.069Z,17.70
2023-05-23T22:21:17.152Z,17.60
2023-05-23T22:23:44.079Z,17.60
2023-05-23T22:26:12.659Z,17.50
2023-05-23T22:28:41.107Z,17.60
2023-05-23T22:31:10.382Z,17.60
2023-05-23T22:33:39.833Z,17.50
2023-05-23T22:36:07.197Z,17.40
2023-05-23T22:38:35.995Z,17.40
2023-05-23T22:41:04.655Z,17.50
2023-05-23T22:43:34.087Z,17.50
2023-05-23T22:46:02.635Z,17.50
2023-05-23T22:48:33.784Z,17.50
2023-05-23T22:51:02.288Z,17.50
2023-05-23T22:53:30.485Z,17.40
2023-05-23T22:55:58.157Z,17.40
2023-05-23T22:58:25.145Z,17.50
2023-05-23T23:00:52.254Z,17.40
2023-05-23T23:03:20.993Z,17.50
2023-05-23T23:05:48.881Z,17.40
2023-05-23T23:08:16.678Z,17.40
2023-05-23T23:10:44.619Z,17.40
2023-05-23T23:13:14.099Z,17.40
2023-05-23T23:15:42.911Z,17.30
2023-05-23T23:18:13.814Z,17.30
2023-05-23T23:20:42.644Z,17.30
2023-05-23T23:23:09.837Z,17.30
2023-05-23T23:25:37.204Z,17.30
2023-05-23T23:28:04.789Z,17.30
2023-05-23T23:30:31.870Z,17.30
2023-05-23T23:32:59.135Z,17.20
2023-05-23T23:35:26.101Z,17.20
2023-05-23T23:37:52.964Z,17.20
2023-05-23T23:40:20.184Z,17.20
2023-05-23T23:42:47.112Z,17.20
2023-05-23T23:45:15.367Z,17.20
2023-05-23T23:47:42.885Z,17.20
2023-05-23T23:50:15.868Z,17.20
2023-05-23T23:52:44.012Z,17.20
2023-05-23T23:55:10.816Z,17.20
2023-05-23T23:57:38.620Z,17.20
